»·PEaware :: DCM2499 KSMX-KRAL

DCM2499 :: KSMX-KRAL

FLIGHT INFORMATION

Flight Status: Arrived
Operator: Unknown
More flights by this operator :: More flights under this callsign
Pilot: Alec D. (17934)
Aircraft: GATES LEARJET LEARJET 35/36
(LJ35)
More flights by this aircraft type
Origin: KSMX Santa Maria Pub/Capt Hancock
United States
Destination: KRAL Riverside Mun
United States
More flights between these airports :: More routes between these airports
Route: +BUELT4 RZS V186 PDZ
File this flight plan on PilotEdge
Remarks:
Altitude:
(Current/Filed)
19,000ft
Speed:
(Current/Filed)
400kts
Departed: 03-Aug-18 09:17 PM
Arrived: 03-Aug-18 09:56 PM
Distance/Time
Traveled:
160nm/0:39
Distance/Time
To Go:
Arrived

Flight Plot

Page will automatically refresh every two minutes.

Flight plan parsing failed; only flown route is shown


Map Options




Map Legend


Flown Route
Filed Route
Departure Airport
Arrival Airport
Navaid (VOR, NDB)
Fix

Horizontal Profiles

Position Reports

Time Latitude Longitude Heading Altitude Ground
Speed
03-Aug-18 20:57 34.892859 -120.454848 177 263ft 0kts
03-Aug-18 20:58 34.892859 -120.454848 177 263ft 0kts
03-Aug-18 20:59 34.892859 -120.454848 177 263ft 0kts
03-Aug-18 21:00 34.892859 -120.454848 177 263ft 0kts
03-Aug-18 21:01 34.892859 -120.454848 177 263ft 0kts
03-Aug-18 21:02 34.892859 -120.454848 177 263ft 0kts
03-Aug-18 21:03 34.892857 -120.454848 177 263ft 0kts
03-Aug-18 21:04 34.892854 -120.454848 177 263ft 0kts
03-Aug-18 21:05 34.892852 -120.454847 177 263ft 0kts
03-Aug-18 21:06 34.892849 -120.454847 177 263ft 0kts
03-Aug-18 21:07 34.892847 -120.454847 177 263ft 0kts
03-Aug-18 21:08 34.892844 -120.454847 177 263ft 0kts
03-Aug-18 21:09 34.893138 -120.454705 88 263ft 6kts
03-Aug-18 21:10 34.891864 -120.453602 151 263ft 8kts
03-Aug-18 21:11 34.891727 -120.450832 91 263ft 12kts
03-Aug-18 21:12 34.891901 -120.446996 53 263ft 1kts
03-Aug-18 21:13 34.892217 -120.446534 47 263ft 0kts
03-Aug-18 21:14 34.892219 -120.446532 47 263ft 0kts
03-Aug-18 21:15 34.892275 -120.446457 48 263ft 0kts
03-Aug-18 21:16 34.892318 -120.446398 48 263ft 0kts
03-Aug-18 21:17 34.892840 -120.445929 338 264ft 5kts
03-Aug-18 21:18 34.904174 -120.459200 322 684ft 162kts
03-Aug-18 21:19 34.941001 -120.435540 84 3815ft 230kts
03-Aug-18 21:20 34.897791 -120.384712 182 6020ft 251kts
03-Aug-18 21:21 34.830719 -120.402937 178 7992ft 250kts
03-Aug-18 21:22 34.761366 -120.369332 148 8007ft 287kts
03-Aug-18 21:23 34.695586 -120.313002 144 7991ft 276kts
03-Aug-18 21:24 34.644621 -120.251816 107 7993ft 255kts
03-Aug-18 21:25 34.621728 -120.167859 106 7996ft 270kts
03-Aug-18 21:26 34.596848 -120.079306 107 7999ft 281kts
03-Aug-18 21:27 34.571218 -119.988520 107 8123ft 285kts
03-Aug-18 21:28 34.543983 -119.892358 108 10950ft 310kts
03-Aug-18 21:29 34.515143 -119.790924 108 13815ft 325kts
03-Aug-18 21:30 34.468681 -119.695592 123 16655ft 337kts
03-Aug-18 21:31 34.415386 -119.597694 124 18936ft 367kts
03-Aug-18 21:32 34.358219 -119.492754 124 18949ft 377kts
03-Aug-18 21:33 34.318917 -119.377622 90 18947ft 377kts
03-Aug-18 21:34 34.329038 -119.251602 84 18953ft 374kts
03-Aug-18 21:35 34.338451 -119.126597 84 18941ft 373kts
03-Aug-18 21:36 34.347710 -119.001579 84 18940ft 372kts
03-Aug-18 21:37 34.352941 -118.877301 99 18959ft 370kts
03-Aug-18 21:38 34.315989 -118.761504 112 18946ft 370kts
03-Aug-18 21:39 34.277907 -118.650558 112 17272ft 347kts
03-Aug-18 21:40 34.241830 -118.545465 112 15273ft 332kts
03-Aug-18 21:41 34.207923 -118.443748 109 13903ft 319kts
03-Aug-18 21:42 34.178512 -118.344406 109 13898ft 310kts
03-Aug-18 21:43 34.148169 -118.244267 109 12240ft 322kts
03-Aug-18 21:44 34.118173 -118.145885 110 10263ft 302kts
03-Aug-18 21:45 34.089939 -118.053802 110 8457ft 285kts
03-Aug-18 21:46 34.062772 -117.965270 110 6652ft 275kts
03-Aug-18 21:47 34.037360 -117.882769 110 5561ft 253kts
03-Aug-18 21:48 34.013911 -117.806975 110 5010ft 223kts
03-Aug-18 21:49 33.991342 -117.735891 113 5029ft 232kts
03-Aug-18 21:50 33.965831 -117.664560 113 4996ft 218kts
03-Aug-18 21:51 33.943218 -117.600513 112 4968ft 199kts
03-Aug-18 21:52 33.930949 -117.537696 92 3580ft 189kts
03-Aug-18 21:53 33.932084 -117.479877 88 2254ft 153kts
03-Aug-18 21:54 33.925347 -117.431377 106 2136ft 138kts
03-Aug-18 21:55 33.942342 -117.407008 322 1399ft 134kts
03-Aug-18 21:56 33.952114 -117.442738 280 821ft 44kts
03-Aug-18 21:57 33.952388 -117.446078 196 821ft 0kts
03-Aug-18 21:58 33.951591 -117.443999 102 821ft 5kts
03-Aug-18 21:59 33.950616 -117.443875 192 821ft 0kts
03-Aug-18 22:00 33.950615 -117.443875 192 821ft 0kts

Navigation Log

Ident Type
Flight plan parsing failed, navigation log unavailable